Terminal Aerodrome Forecast
Issued by NWS Newport/Morehead City, NC

Home | Current Version | Previous Version | Graphics & Text | Print | Product List | Glossary On
Versions: 1 2 3 4 5 6 7 8 9 10 11 12 13 14 15
000
FTUS42 KMHX 261332 AAA
TAFEWN
TAF AMD
KEWN 261332Z 2614/2712 36014KT 6SM -RA BR OVC010
     FM261500 01010G17KT 5SM BR OVC005
     FM270000 36008KT 5SM BR OVC007=

USA.gov is the U.S. government's official web portal to all federal, state and local government web resources and services.